sensor_id;sensor_type;location;lat;lon;timestamp;pressure;altitude;pressure_sealevel;temperature;humidity
12221;BME280;6173;42.024;23.096;2022-07-10T00:02:12;96552.53;;;15.62;100.00
12221;BME280;6173;42.024;23.096;2022-07-10T00:04:39;96555.84;;;15.59;100.00
12221;BME280;6173;42.024;23.096;2022-07-10T00:07:06;96562.28;;;15.58;100.00
12221;BME280;6173;42.024;23.096;2022-07-10T00:09:33;96566.38;;;15.64;100.00
12221;BME280;6173;42.024;23.096;2022-07-10T00:12:00;96561.03;;;15.64;100.00
12221;BME280;6173;42.024;23.096;2022-07-10T00:14:28;96554.75;;;15.51;100.00
12221;BME280;6173;42.024;23.096;2022-07-10T00:16:55;96565.00;;;15.40;100.00
12221;BME280;6173;42.024;23.096;2022-07-10T00:19:21;96564.72;;;15.33;100.00
12221;BME280;6173;42.024;23.096;2022-07-10T00:21:48;96556.41;;;15.26;100.00
12221;BME280;6173;42.024;23.096;2022-07-10T00:24:15;96549.78;;;15.41;100.00
12221;BME280;6173;42.024;23.096;2022-07-10T00:26:42;96548.09;;;15.28;100.00
12221;BME280;6173;42.024;23.096;2022-07-10T00:29:08;96547.09;;;15.41;100.00
12221;BME280;6173;42.024;23.096;2022-07-10T00:31:36;96553.09;;;15.38;100.00
12221;BME280;6173;42.024;23.096;2022-07-10T00:34:03;96543.03;;;15.35;100.00
12221;BME280;6173;42.024;23.096;2022-07-10T00:36:31;96549.81;;;15.32;100.00
12221;BME280;6173;42.024;23.096;2022-07-10T00:38:58;96542.72;;;15.36;100.00
12221;BME280;6173;42.024;23.096;2022-07-10T00:41:25;96537.09;;;15.38;100.00
12221;BME280;6173;42.024;23.096;2022-07-10T00:43:52;96550.69;;;15.45;100.00
12221;BME280;6173;42.024;23.096;2022-07-10T00:46:20;96549.75;;;15.49;100.00
12221;BME280;6173;42.024;23.096;2022-07-10T00:48:48;96536.31;;;15.37;100.00
12221;BME280;6173;42.024;23.096;2022-07-10T00:51:17;96529.19;;;15.41;100.00
12221;BME280;6173;42.024;23.096;2022-07-10T00:53:44;96533.59;;;15.46;100.00
12221;BME280;6173;42.024;23.096;2022-07-10T00:56:12;96534.75;;;15.28;100.00
12221;BME280;6173;42.024;23.096;2022-07-10T00:58:42;96515.97;;;15.07;100.00
12221;BME280;6173;42.024;23.096;2022-07-10T01:01:09;96540.44;;;15.17;100.00
12221;BME280;6173;42.024;23.096;2022-07-10T01:03:36;96528.97;;;15.17;100.00
12221;BME280;6173;42.024;23.096;2022-07-10T01:06:04;96527.88;;;15.18;100.00
12221;BME280;6173;42.024;23.096;2022-07-10T01:08:32;96522.66;;;15.21;100.00
12221;BME280;6173;42.024;23.096;2022-07-10T01:10:59;96510.16;;;15.05;100.00
12221;BME280;6173;42.024;23.096;2022-07-10T01:13:26;96528.97;;;15.17;100.00
12221;BME280;6173;42.024;23.096;2022-07-10T01:15:53;96515.16;;;15.15;100.00
12221;BME280;6173;42.024;23.096;2022-07-10T01:18:20;96510.16;;;15.13;100.00
12221;BME280;6173;42.024;23.096;2022-07-10T01:20:52;96492.59;;;15.04;100.00
12221;BME280;6173;42.024;23.096;2022-07-10T01:23:19;96506.09;;;15.07;100.00
12221;BME280;6173;42.024;23.096;2022-07-10T01:25:45;96490.28;;;14.93;100.00
12221;BME280;6173;42.024;23.096;2022-07-10T01:28:12;96512.22;;;15.08;100.00
12221;BME280;6173;42.024;23.096;2022-07-10T01:30:39;96510.50;;;14.94;100.00
12221;BME280;6173;42.024;23.096;2022-07-10T01:33:06;96483.84;;;14.94;100.00
12221;BME280;6173;42.024;23.096;2022-07-10T01:35:33;96505.94;;;15.12;100.00
12221;BME280;6173;42.024;23.096;2022-07-10T01:38:01;96508.78;;;14.98;100.00
12221;BME280;6173;42.024;23.096;2022-07-10T01:40:28;96506.38;;;15.06;100.00
12221;BME280;6173;42.024;23.096;2022-07-10T01:42:54;96519.44;;;15.07;100.00
12221;BME280;6173;42.024;23.096;2022-07-10T01:45:21;96504.84;;;14.96;100.00
12221;BME280;6173;42.024;23.096;2022-07-10T01:47:48;96506.28;;;14.93;100.00
12221;BME280;6173;42.024;23.096;2022-07-10T01:50:15;96508.50;;;14.83;100.00
12221;BME280;6173;42.024;23.096;2022-07-10T01:52:42;96503.63;;;14.76;100.00
12221;BME280;6173;42.024;23.096;2022-07-10T01:55:10;96495.16;;;14.74;100.00
12221;BME280;6173;42.024;23.096;2022-07-10T01:57:37;96512.09;;;14.78;100.00
12221;BME280;6173;42.024;23.096;2022-07-10T02:00:05;96507.88;;;14.77;100.00
12221;BME280;6173;42.024;23.096;2022-07-10T02:02:33;96484.00;;;14.46;100.00
12221;BME280;6173;42.024;23.096;2022-07-10T02:05:00;96511.31;;;14.60;100.00
12221;BME280;6173;42.024;23.096;2022-07-10T02:07:25;96499.41;;;14.58;100.00
12221;BME280;6173;42.024;23.096;2022-07-10T02:09:52;96474.28;;;14.41;100.00
12221;BME280;6173;42.024;23.096;2022-07-10T02:12:20;96503.31;;;14.60;100.00
12221;BME280;6173;42.024;23.096;2022-07-10T02:14:47;96493.47;;;14.52;100.00
12221;BME280;6173;42.024;23.096;2022-07-10T02:17:14;96496.91;;;14.53;100.00
12221;BME280;6173;42.024;23.096;2022-07-10T02:19:41;96493.16;;;14.54;100.00
12221;BME280;6173;42.024;23.096;2022-07-10T02:22:08;96493.59;;;14.56;100.00
12221;BME280;6173;42.024;23.096;2022-07-10T02:24:35;96498.16;;;14.55;100.00
12221;BME280;6173;42.024;23.096;2022-07-10T02:27:02;96496.91;;;14.53;100.00
12221;BME280;6173;42.024;23.096;2022-07-10T02:29:30;96497.53;;;14.50;100.00
12221;BME280;6173;42.024;23.096;2022-07-10T02:31:57;96485.44;;;14.43;100.00
12221;BME280;6173;42.024;23.096;2022-07-10T02:34:23;96471.50;;;14.38;100.00
12221;BME280;6173;42.024;23.096;2022-07-10T02:36:51;96494.88;;;14.50;100.00
12221;BME280;6173;42.024;23.096;2022-07-10T02:39:17;96498.91;;;14.38;100.00
12221;BME280;6173;42.024;23.096;2022-07-10T02:41:44;96488.72;;;14.40;100.00
12221;BME280;6173;42.024;23.096;2022-07-10T02:44:11;96495.16;;;14.39;100.00
12221;BME280;6173;42.024;23.096;2022-07-10T02:46:39;96495.47;;;14.46;100.00
12221;BME280;6173;42.024;23.096;2022-07-10T02:49:06;96503.19;;;14.48;100.00
12221;BME280;6173;42.024;23.096;2022-07-10T02:51:33;96516.78;;;14.46;100.00
12221;BME280;6173;42.024;23.096;2022-07-10T02:54:00;96504.72;;;14.40;100.00
12221;BME280;6173;42.024;23.096;2022-07-10T02:56:27;96512.53;;;14.45;100.00
12221;BME280;6173;42.024;23.096;2022-07-10T02:58:54;96500.78;;;14.29;100.00
12221;BME280;6173;42.024;23.096;2022-07-10T03:01:21;96507.88;;;14.42;100.00
12221;BME280;6173;42.024;23.096;2022-07-10T03:03:49;96508.78;;;14.46;100.00
12221;BME280;6173;42.024;23.096;2022-07-10T03:06:16;96514.63;;;14.57;100.00
12221;BME280;6173;42.024;23.096;2022-07-10T03:08:42;96524.34;;;14.53;100.00
12221;BME280;6173;42.024;23.096;2022-07-10T03:11:09;96524.47;;;14.39;100.00
12221;BME280;6173;42.024;23.096;2022-07-10T03:13:36;96532.47;;;14.39;100.00
12221;BME280;6173;42.024;23.096;2022-07-10T03:16:03;96513.63;;;14.10;100.00
12221;BME280;6173;42.024;23.096;2022-07-10T03:18:30;96527.59;;;14.33;100.00
12221;BME280;6173;42.024;23.096;2022-07-10T03:20:58;96519.47;;;14.38;100.00
12221;BME280;6173;42.024;23.096;2022-07-10T03:23:24;96529.34;;;14.37;100.00
12221;BME280;6173;42.024;23.096;2022-07-10T03:25:52;96527.91;;;14.31;100.00
12221;BME280;6173;42.024;23.096;2022-07-10T03:28:19;96532.47;;;14.39;100.00
12221;BME280;6173;42.024;23.096;2022-07-10T03:30:45;96528.38;;;14.33;100.00
12221;BME280;6173;42.024;23.096;2022-07-10T03:33:12;96529.94;;;14.34;100.00
12221;BME280;6173;42.024;23.096;2022-07-10T03:35:39;96533.06;;;14.36;100.00
12221;BME280;6173;42.024;23.096;2022-07-10T03:38:07;96533.56;;;14.38;100.00
12221;BME280;6173;42.024;23.096;2022-07-10T03:40:34;96535.44;;;14.29;100.00
12221;BME280;6173;42.024;23.096;2022-07-10T03:43:01;96535.88;;;14.31;100.00
12221;BME280;6173;42.024;23.096;2022-07-10T03:45:27;96534.81;;;14.32;100.00
12221;BME280;6173;42.024;23.096;2022-07-10T03:47:54;96534.97;;;14.27;100.00
12221;BME280;6173;42.024;23.096;2022-07-10T03:50:21;96531.31;;;14.06;100.00
12221;BME280;6173;42.024;23.096;2022-07-10T03:52:48;96533.97;;;14.06;100.00
12221;BME280;6173;42.024;23.096;2022-07-10T03:55:16;96539.94;;;14.03;100.00
12221;BME280;6173;42.024;23.096;2022-07-10T03:57:42;96532.59;;;14.08;100.00
12221;BME280;6173;42.024;23.096;2022-07-10T04:00:21;96514.38;;;14.02;100.00
12221;BME280;6173;42.024;23.096;2022-07-10T04:02:55;96533.53;;;14.12;100.00
12221;BME280;6173;42.024;23.096;2022-07-10T04:05:23;96512.22;;;14.12;100.00
12221;BME280;6173;42.024;23.096;2022-07-10T04:07:50;96516.44;;;14.22;100.00
12221;BME280;6173;42.024;23.096;2022-07-10T04:10:18;96524.63;;;14.34;100.00
12221;BME280;6173;42.024;23.096;2022-07-10T04:12:46;96533.41;;;14.43;100.00
12221;BME280;6173;42.024;23.096;2022-07-10T04:15:22;96515.69;;;14.30;100.00
12221;BME280;6173;42.024;23.096;2022-07-10T04:17:50;96536.09;;;14.61;100.00
12221;BME280;6173;42.024;23.096;2022-07-10T04:20:17;96530.44;;;14.71;100.00
12221;BME280;6173;42.024;23.096;2022-07-10T04:22:44;96528.09;;;14.78;100.00
12221;BME280;6173;42.024;23.096;2022-07-10T04:25:11;96532.63;;;14.86;100.00
12221;BME280;6173;42.024;23.096;2022-07-10T04:27:40;96530.44;;;14.88;100.00
12221;BME280;6173;42.024;23.096;2022-07-10T04:30:07;96521.16;;;14.94;100.00
12221;BME280;6173;42.024;23.096;2022-07-10T04:32:34;96531.50;;;15.05;100.00
12221;BME280;6173;42.024;23.096;2022-07-10T04:35:01;96526.59;;;15.24;100.00
12221;BME280;6173;42.024;23.096;2022-07-10T04:37:28;96513.09;;;15.20;100.00
12221;BME280;6173;42.024;23.096;2022-07-10T04:39:54;96521.88;;;15.30;100.00
12221;BME280;6173;42.024;23.096;2022-07-10T04:42:21;96531.88;;;15.41;100.00
12221;BME280;6173;42.024;23.096;2022-07-10T04:44:52;96527.28;;;15.50;100.00
12221;BME280;6173;42.024;23.096;2022-07-10T04:47:19;96540.59;;;15.59;100.00
12221;BME280;6173;42.024;23.096;2022-07-10T04:49:48;96461.97;;;15.10;100.00
12221;BME280;6173;42.024;23.096;2022-07-10T04:52:14;96549.06;;;15.70;100.00
12221;BME280;6173;42.024;23.096;2022-07-10T04:54:41;96542.00;;;15.74;100.00
12221;BME280;6173;42.024;23.096;2022-07-10T04:57:08;96542.25;;;15.81;100.00
12221;BME280;6173;42.024;23.096;2022-07-10T04:59:35;96534.91;;;15.78;100.00
12221;BME280;6173;42.024;23.096;2022-07-10T05:02:04;96536.28;;;15.84;100.00
12221;BME280;6173;42.024;23.096;2022-07-10T05:04:31;96507.09;;;15.79;100.00
12221;BME280;6173;42.024;23.096;2022-07-10T05:06:58;96531.47;;;16.07;100.00
12221;BME280;6173;42.024;23.096;2022-07-10T05:09:24;96510.66;;;15.92;100.00
12221;BME280;6173;42.024;23.096;2022-07-10T05:11:51;96524.38;;;16.11;100.00
12221;BME280;6173;42.024;23.096;2022-07-10T05:14:18;96533.22;;;16.24;100.00
12221;BME280;6173;42.024;23.096;2022-07-10T05:16:45;96531.47;;;16.28;100.00
12221;BME280;6173;42.024;23.096;2022-07-10T05:19:13;96526.28;;;16.32;100.00
12221;BME280;6173;42.024;23.096;2022-07-10T05:21:39;96524.00;;;16.21;100.00
12221;BME280;6173;42.024;23.096;2022-07-10T05:24:06;96522.63;;;16.36;100.00
12221;BME280;6173;42.024;23.096;2022-07-10T05:26:33;96518.69;;;16.34;100.00
12221;BME280;6173;42.024;23.096;2022-07-10T05:29:01;96488.78;;;16.19;100.00
12221;BME280;6173;42.024;23.096;2022-07-10T05:31:28;96520.44;;;16.50;100.00
12221;BME280;6173;42.024;23.096;2022-07-10T05:33:55;96526.84;;;16.58;100.00
12221;BME280;6173;42.024;23.096;2022-07-10T05:36:23;96518.25;;;16.52;100.00
12221;BME280;6173;42.024;23.096;2022-07-10T05:38:50;96515.41;;;16.70;100.00
12221;BME280;6173;42.024;23.096;2022-07-10T05:41:16;96505.94;;;16.81;100.00
12221;BME280;6173;42.024;23.096;2022-07-10T05:43:43;96509.25;;;16.78;100.00
12221;BME280;6173;42.024;23.096;2022-07-10T05:46:10;96508.47;;;16.77;100.00
12221;BME280;6173;42.024;23.096;2022-07-10T05:48:37;96502.72;;;16.46;100.00
12221;BME280;6173;42.024;23.096;2022-07-10T05:51:04;96505.47;;;16.58;100.00
12221;BME280;6173;42.024;23.096;2022-07-10T05:53:32;96512.22;;;16.55;100.00
12221;BME280;6173;42.024;23.096;2022-07-10T05:56:00;96503.75;;;16.74;100.00
12221;BME280;6173;42.024;23.096;2022-07-10T05:58:27;96497.00;;;16.77;100.00
12221;BME280;6173;42.024;23.096;2022-07-10T06:00:54;96512.06;;;16.82;100.00
12221;BME280;6173;42.024;23.096;2022-07-10T06:03:21;96501.16;;;16.87;100.00
12221;BME280;6173;42.024;23.096;2022-07-10T06:05:48;96501.25;;;16.90;100.00
12221;BME280;6173;42.024;23.096;2022-07-10T06:08:15;96495.63;;;17.04;100.00
12221;BME280;6173;42.024;23.096;2022-07-10T06:10:43;96471.75;;;16.99;100.00
12221;BME280;6173;42.024;23.096;2022-07-10T06:13:10;96496.78;;;17.27;100.00
12221;BME280;6173;42.024;23.096;2022-07-10T06:15:37;96495.53;;;17.25;100.00
12221;BME280;6173;42.024;23.096;2022-07-10T06:18:05;96495.00;;;17.31;100.00
12221;BME280;6173;42.024;23.096;2022-07-10T06:20:31;96486.97;;;17.44;100.00
12221;BME280;6173;42.024;23.096;2022-07-10T06:22:58;96489.34;;;17.57;100.00
12221;BME280;6173;42.024;23.096;2022-07-10T06:25:25;96480.09;;;17.79;100.00
12221;BME280;6173;42.024;23.096;2022-07-10T06:27:53;96481.66;;;17.93;100.00
12221;BME280;6173;42.024;23.096;2022-07-10T06:30:20;96478.81;;;18.14;100.00
12221;BME280;6173;42.024;23.096;2022-07-10T06:32:48;96485.59;;;18.23;100.00
12221;BME280;6173;42.024;23.096;2022-07-10T06:35:15;96482.97;;;17.99;100.00
12221;BME280;6173;42.024;23.096;2022-07-10T06:37:41;96482.19;;;18.11;100.00
12221;BME280;6173;42.024;23.096;2022-07-10T06:40:11;96478.59;;;18.19;100.00
12221;BME280;6173;42.024;23.096;2022-07-10T06:42:39;96472.44;;;18.18;100.00
12221;BME280;6173;42.024;23.096;2022-07-10T06:45:08;96483.59;;;18.32;100.00
12221;BME280;6173;42.024;23.096;2022-07-10T06:47:35;96483.00;;;18.39;100.00
12221;BME280;6173;42.024;23.096;2022-07-10T06:50:20;96437.34;;;17.95;100.00
12221;BME280;6173;42.024;23.096;2022-07-10T06:52:47;96476.56;;;18.28;100.00
12221;BME280;6173;42.024;23.096;2022-07-10T06:55:14;96469.25;;;18.41;100.00
12221;BME280;6173;42.024;23.096;2022-07-10T06:57:41;96460.63;;;18.47;100.00
12221;BME280;6173;42.024;23.096;2022-07-10T07:00:10;96448.78;;;18.48;100.00
12221;BME280;6173;42.024;23.096;2022-07-10T07:02:37;96438.44;;;18.63;100.00
12221;BME280;6173;42.024;23.096;2022-07-10T07:05:05;96445.50;;;18.83;100.00
12221;BME280;6173;42.024;23.096;2022-07-10T07:07:32;96437.47;;;18.83;100.00
12221;BME280;6173;42.024;23.096;2022-07-10T07:09:59;96434.38;;;18.97;100.00
12221;BME280;6173;42.024;23.096;2022-07-10T07:12:25;96437.78;;;19.25;100.00
12221;BME280;6173;42.024;23.096;2022-07-10T07:14:52;96447.38;;;19.42;100.00
12221;BME280;6173;42.024;23.096;2022-07-10T07:17:20;96434.44;;;19.48;100.00
12221;BME280;6173;42.024;23.096;2022-07-10T07:19:50;96429.84;;;19.48;100.00
12221;BME280;6173;42.024;23.096;2022-07-10T07:22:34;96417.47;;;19.44;100.00
12221;BME280;6173;42.024;23.096;2022-07-10T07:25:18;96431.59;;;19.72;100.00
12221;BME280;6173;42.024;23.096;2022-07-10T07:27:45;96428.28;;;19.79;100.00
12221;BME280;6173;42.024;23.096;2022-07-10T07:30:13;96413.22;;;19.74;100.00
12221;BME280;6173;42.024;23.096;2022-07-10T07:32:43;96427.47;;;19.94;100.00
12221;BME280;6173;42.024;23.096;2022-07-10T07:35:11;96433.50;;;20.07;100.00
12221;BME280;6173;42.024;23.096;2022-07-10T07:37:39;96408.03;;;20.01;100.00
12221;BME280;6173;42.024;23.096;2022-07-10T07:40:08;96419.38;;;20.29;100.00
12221;BME280;6173;42.024;23.096;2022-07-10T07:42:35;96423.53;;;20.46;100.00
12221;BME280;6173;42.024;23.096;2022-07-10T07:45:04;96410.78;;;20.62;100.00
12221;BME280;6173;42.024;23.096;2022-07-10T07:47:31;96422.47;;;20.70;100.00
12221;BME280;6173;42.024;23.096;2022-07-10T07:50:09;96417.16;;;20.74;100.00
12221;BME280;6173;42.024;23.096;2022-07-10T07:52:36;96403.81;;;20.81;100.00
12221;BME280;6173;42.024;23.096;2022-07-10T07:55:04;96409.63;;;21.06;100.00
12221;BME280;6173;42.024;23.096;2022-07-10T07:57:31;96415.19;;;21.16;100.00
12221;BME280;6173;42.024;23.096;2022-07-10T07:59:58;96398.56;;;21.11;100.00
12221;BME280;6173;42.024;23.096;2022-07-10T08:02:24;96411.28;;;21.33;100.00
12221;BME280;6173;42.024;23.096;2022-07-10T08:04:51;96403.59;;;21.35;100.00
12221;BME280;6173;42.024;23.096;2022-07-10T08:07:19;96412.75;;;21.31;100.00
12221;BME280;6173;42.024;23.096;2022-07-10T08:09:46;96382.41;;;21.11;100.00
12221;BME280;6173;42.024;23.096;2022-07-10T08:12:14;96378.84;;;21.30;100.00
12221;BME280;6173;42.024;23.096;2022-07-10T08:14:41;96409.28;;;21.53;100.00
12221;BME280;6173;42.024;23.096;2022-07-10T08:17:07;96403.19;;;21.60;100.00
12221;BME280;6173;42.024;23.096;2022-07-10T08:19:34;96414.38;;;21.62;100.00
12221;BME280;6173;42.024;23.096;2022-07-10T08:22:01;96406.34;;;21.65;100.00
12221;BME280;6173;42.024;23.096;2022-07-10T08:24:29;96406.97;;;21.82;100.00
12221;BME280;6173;42.024;23.096;2022-07-10T08:26:56;96407.63;;;22.02;100.00
12221;BME280;6173;42.024;23.096;2022-07-10T08:29:23;96403.81;;;22.06;100.00
12221;BME280;6173;42.024;23.096;2022-07-10T08:31:49;96412.41;;;22.12;100.00
12221;BME280;6173;42.024;23.096;2022-07-10T08:34:16;96412.84;;;22.17;100.00
12221;BME280;6173;42.024;23.096;2022-07-10T08:36:43;96410.56;;;22.19;100.00
12221;BME280;6173;42.024;23.096;2022-07-10T08:39:10;96404.41;;;22.19;100.00
12221;BME280;6173;42.024;23.096;2022-07-10T08:41:38;96410.03;;;22.40;100.00
12221;BME280;6173;42.024;23.096;2022-07-10T08:44:05;96417.31;;;22.36;100.00
12221;BME280;6173;42.024;23.096;2022-07-10T08:46:32;96404.75;;;22.17;100.00
12221;BME280;6173;42.024;23.096;2022-07-10T08:48:59;96403.38;;;22.31;100.00
12221;BME280;6173;42.024;23.096;2022-07-10T08:51:35;96400.72;;;22.34;100.00
12221;BME280;6173;42.024;23.096;2022-07-10T08:54:04;96395.44;;;22.45;100.00
12221;BME280;6173;42.024;23.096;2022-07-10T08:56:31;96392.03;;;22.52;100.00
12221;BME280;6173;42.024;23.096;2022-07-10T08:59:01;96390.69;;;22.68;100.00
12221;BME280;6173;42.024;23.096;2022-07-10T09:01:28;96371.13;;;22.79;100.00
12221;BME280;6173;42.024;23.096;2022-07-10T09:03:55;96373.41;;;22.77;100.00
12221;BME280;6173;42.024;23.096;2022-07-10T09:06:22;96385.31;;;22.72;100.00
12221;BME280;6173;42.024;23.096;2022-07-10T09:09:00;96384.38;;;22.91;100.00
12221;BME280;6173;42.024;23.096;2022-07-10T09:11:27;96382.47;;;22.95;100.00
12221;BME280;6173;42.024;23.096;2022-07-10T09:13:57;96358.03;;;22.84;100.00
12221;BME280;6173;42.024;23.096;2022-07-10T09:16:26;96373.31;;;23.07;100.00
12221;BME280;6173;42.024;23.096;2022-07-10T09:18:54;96356.66;;;22.98;100.00
12221;BME280;6173;42.024;23.096;2022-07-10T09:21:21;96378.91;;;23.28;100.00
12221;BME280;6173;42.024;23.096;2022-07-10T09:23:48;96366.25;;;23.43;100.00
12221;BME280;6173;42.024;23.096;2022-07-10T09:26:15;96374.84;;;23.59;100.00
12221;BME280;6173;42.024;23.096;2022-07-10T09:28:43;96375.31;;;23.68;100.00
12221;BME280;6173;42.024;23.096;2022-07-10T09:31:10;96378.91;;;23.90;100.00
12221;BME280;6173;42.024;23.096;2022-07-10T09:33:40;96370.81;;;23.94;100.00
12221;BME280;6173;42.024;23.096;2022-07-10T09:36:08;96379.69;;;23.91;100.00
12221;BME280;6173;42.024;23.096;2022-07-10T09:38:54;96372.41;;;24.02;100.00
12221;BME280;6173;42.024;23.096;2022-07-10T09:41:27;96358.88;;;24.02;100.00
12221;BME280;6173;42.024;23.096;2022-07-10T09:43:56;96375.88;;;24.06;100.00
12221;BME280;6173;42.024;23.096;2022-07-10T09:46:25;96369.31;;;24.04;100.00
12221;BME280;6173;42.024;23.096;2022-07-10T09:49:07;96366.28;;;24.19;100.00
12221;BME280;6173;42.024;23.096;2022-07-10T09:51:36;96375.53;;;24.08;100.00
12221;BME280;6173;42.024;23.096;2022-07-10T09:54:05;96370.19;;;24.22;100.00
12221;BME280;6173;42.024;23.096;2022-07-10T09:56:43;96363.28;;;24.39;100.00
12221;BME280;6173;42.024;23.096;2022-07-10T09:59:11;96332.63;;;24.13;100.00
12221;BME280;6173;42.024;23.096;2022-07-10T10:01:42;96362.84;;;24.30;100.00
12221;BME280;6173;42.024;23.096;2022-07-10T10:04:12;96362.59;;;24.67;100.00
12221;BME280;6173;42.024;23.096;2022-07-10T10:06:40;96354.03;;;24.61;100.00
12221;BME280;6173;42.024;23.096;2022-07-10T10:09:12;96371.09;;;24.69;86.20
12221;BME280;6173;42.024;23.096;2022-07-10T10:11:44;96356.00;;;24.68;81.44
12221;BME280;6173;42.024;23.096;2022-07-10T10:14:11;96358.34;;;24.91;79.20
12221;BME280;6173;42.024;23.096;2022-07-10T10:16:39;96347.16;;;25.07;75.23
12221;BME280;6173;42.024;23.096;2022-07-10T10:19:11;96335.88;;;25.01;73.88
12221;BME280;6173;42.024;23.096;2022-07-10T10:21:57;96334.38;;;24.96;70.86
12221;BME280;6173;42.024;23.096;2022-07-10T10:24:25;96338.97;;;24.85;71.84
12221;BME280;6173;42.024;23.096;2022-07-10T10:26:53;96342.47;;;24.93;66.38
12221;BME280;6173;42.024;23.096;2022-07-10T10:29:20;96333.56;;;25.03;66.13
12221;BME280;6173;42.024;23.096;2022-07-10T10:31:47;96309.59;;;24.87;65.03
12221;BME280;6173;42.024;23.096;2022-07-10T10:34:39;96323.13;;;25.19;63.73
12221;BME280;6173;42.024;23.096;2022-07-10T10:37:34;96317.28;;;25.46;63.66
12221;BME280;6173;42.024;23.096;2022-07-10T10:40:02;96314.13;;;25.65;61.94
12221;BME280;6173;42.024;23.096;2022-07-10T10:42:34;96316.47;;;25.67;62.11
12221;BME280;6173;42.024;23.096;2022-07-10T10:45:23;96322.31;;;25.55;59.82
12221;BME280;6173;42.024;23.096;2022-07-10T10:47:59;96320.38;;;25.51;59.78
12221;BME280;6173;42.024;23.096;2022-07-10T10:50:38;96307.59;;;25.52;61.06
12221;BME280;6173;42.024;23.096;2022-07-10T10:53:12;96294.41;;;25.61;58.23
12221;BME280;6173;42.024;23.096;2022-07-10T10:55:39;96320.69;;;25.86;57.85
12221;BME280;6173;42.024;23.096;2022-07-10T10:58:15;96305.22;;;25.65;57.87
12221;BME280;6173;42.024;23.096;2022-07-10T11:00:43;96309.09;;;25.82;57.83
12221;BME280;6173;42.024;23.096;2022-07-10T11:03:19;96310.63;;;25.86;55.62
12221;BME280;6173;42.024;23.096;2022-07-10T11:05:48;96310.31;;;25.52;55.72
12221;BME280;6173;42.024;23.096;2022-07-10T11:08:40;96306.44;;;25.46;52.90
12221;BME280;6173;42.024;23.096;2022-07-10T11:11:38;96307.44;;;26.02;51.68
12221;BME280;6173;42.024;23.096;2022-07-10T11:14:09;96294.66;;;25.95;49.54
12221;BME280;6173;42.024;23.096;2022-07-10T11:16:38;96273.78;;;25.85;48.68
12221;BME280;6173;42.024;23.096;2022-07-10T11:19:12;96306.31;;;25.92;48.85
12221;BME280;6173;42.024;23.096;2022-07-10T11:21:46;96306.69;;;25.98;47.54
12221;BME280;6173;42.024;23.096;2022-07-10T11:24:38;96295.78;;;26.05;48.06
12221;BME280;6173;42.024;23.096;2022-07-10T11:27:16;96290.75;;;26.07;48.28
12221;BME280;6173;42.024;23.096;2022-07-10T11:29:45;96284.84;;;26.23;47.35
12221;BME280;6173;42.024;23.096;2022-07-10T11:32:16;96287.97;;;26.21;47.16
12221;BME280;6173;42.024;23.096;2022-07-10T11:34:42;96278.13;;;26.42;46.68
12221;BME280;6173;42.024;23.096;2022-07-10T11:37:15;96280.72;;;26.63;47.38
12221;BME280;6173;42.024;23.096;2022-07-10T11:39:42;96270.59;;;26.71;45.93
12221;BME280;6173;42.024;23.096;2022-07-10T11:42:09;96273.56;;;26.87;44.82
12221;BME280;6173;42.024;23.096;2022-07-10T11:44:36;96271.50;;;26.98;44.94
12221;BME280;6173;42.024;23.096;2022-07-10T11:47:04;96273.28;;;27.19;44.39
12221;BME280;6173;42.024;23.096;2022-07-10T11:49:33;96287.47;;;27.38;43.62
12221;BME280;6173;42.024;23.096;2022-07-10T11:52:01;96277.50;;;27.24;43.26
12221;BME280;6173;42.024;23.096;2022-07-10T11:54:30;96257.66;;;27.30;42.37
12221;BME280;6173;42.024;23.096;2022-07-10T11:57:04;96292.53;;;28.07;39.65
12221;BME280;6173;42.024;23.096;2022-07-10T11:59:33;96283.50;;;29.62;36.88
12221;BME280;6173;42.024;23.096;2022-07-10T12:02:00;96291.47;;;30.98;34.65
12221;BME280;6173;42.024;23.096;2022-07-10T12:04:30;96273.19;;;29.90;35.85
12221;BME280;6173;42.024;23.096;2022-07-10T12:06:57;96270.56;;;29.66;36.10
12221;BME280;6173;42.024;23.096;2022-07-10T12:09:24;96279.72;;;32.30;33.49
12221;BME280;6173;42.024;23.096;2022-07-10T12:11:59;96270.44;;;33.91;28.71
12221;BME280;6173;42.024;23.096;2022-07-10T12:14:27;96277.44;;;33.83;28.49
12221;BME280;6173;42.024;23.096;2022-07-10T12:16:55;96275.91;;;34.44;27.47
12221;BME280;6173;42.024;23.096;2022-07-10T12:19:24;96274.88;;;35.01;27.08
12221;BME280;6173;42.024;23.096;2022-07-10T12:21:53;96276.41;;;36.12;26.89
12221;BME280;6173;42.024;23.096;2022-07-10T12:24:21;96261.56;;;36.09;26.15
12221;BME280;6173;42.024;23.096;2022-07-10T12:26:50;96257.00;;;37.06;24.92
12221;BME280;6173;42.024;23.096;2022-07-10T12:29:23;96264.66;;;38.88;23.13
12221;BME280;6173;42.024;23.096;2022-07-10T12:31:52;96272.75;;;39.99;21.80
12221;BME280;6173;42.024;23.096;2022-07-10T12:34:32;96277.09;;;39.80;21.74
12221;BME280;6173;42.024;23.096;2022-07-10T12:37:06;96276.44;;;39.03;22.42
12221;BME280;6173;42.024;23.096;2022-07-10T12:39:36;96282.47;;;39.63;21.75
12221;BME280;6173;42.024;23.096;2022-07-10T12:42:04;96283.38;;;39.54;21.51
12221;BME280;6173;42.024;23.096;2022-07-10T12:44:38;96272.41;;;39.66;21.21
12221;BME280;6173;42.024;23.096;2022-07-10T12:47:07;96269.31;;;39.84;21.22
12221;BME280;6173;42.024;23.096;2022-07-10T12:49:50;96270.41;;;40.18;20.54
12221;BME280;6173;42.024;23.096;2022-07-10T12:52:25;96262.75;;;38.94;21.24
12221;BME280;6173;42.024;23.096;2022-07-10T12:55:08;96255.94;;;37.95;22.19
12221;BME280;6173;42.024;23.096;2022-07-10T12:57:46;96252.06;;;38.52;21.82
12221;BME280;6173;42.024;23.096;2022-07-10T13:00:16;96252.84;;;39.75;21.07
12221;BME280;6173;42.024;23.096;2022-07-10T13:02:44;96252.88;;;40.75;19.92